createdAt,value
2023-05-04T03:58:59.567Z,84.00
2023-05-04T03:59:59.508Z,92.00
2023-05-04T04:00:59.489Z,100.00
2023-05-04T04:01:59.606Z,104.00
2023-05-04T04:02:59.589Z,112.00
2023-05-04T04:03:59.587Z,116.00
2023-05-04T04:04:59.460Z,124.00
2023-05-04T04:05:59.450Z,132.00
2023-05-04T04:06:59.467Z,144.00
2023-05-04T04:07:59.461Z,148.00
2023-05-04T04:08:59.440Z,156.00
2023-05-04T04:09:59.426Z,160.00
2023-05-04T04:10:59.429Z,172.00
2023-05-04T04:11:59.443Z,180.00
2023-05-04T04:12:59.487Z,192.00
2023-05-04T04:13:59.413Z,204.00
2023-05-04T04:14:59.597Z,216.00
2023-05-04T04:15:59.468Z,232.00
2023-05-04T04:16:59.420Z,248.00
2023-05-04T04:17:59.451Z,260.00
2023-05-04T04:18:59.390Z,272.00
2023-05-04T04:19:59.385Z,284.00
2023-05-04T04:20:59.379Z,300.00
2023-05-04T04:21:59.403Z,308.00
2023-05-04T04:22:59.416Z,320.00
2023-05-04T04:23:59.377Z,332.00
2023-05-04T04:24:59.381Z,344.00
2023-05-04T04:25:59.371Z,352.00
2023-05-04T04:26:59.380Z,368.00
2023-05-04T04:27:59.419Z,380.00
2023-05-04T04:28:59.373Z,392.00
2023-05-04T04:29:59.347Z,404.00
2023-05-04T04:30:59.413Z,416.00
2023-05-04T04:31:59.424Z,428.00
2023-05-04T04:32:59.379Z,436.00
2023-05-04T04:33:59.340Z,444.00
2023-05-04T04:34:59.348Z,452.00
2023-05-04T04:35:59.333Z,464.00
2023-05-04T04:36:59.375Z,476.00
2023-05-04T04:38:00.205Z,484.00
2023-05-04T04:38:59.355Z,496.00
2023-05-04T04:39:59.313Z,504.00
2023-05-04T04:40:59.325Z,516.00
2023-05-04T04:41:59.318Z,524.00
2023-05-04T04:42:59.310Z,532.00
2023-05-04T04:43:59.307Z,544.00
2023-05-04T04:44:59.327Z,556.00
2023-05-04T04:45:59.288Z,564.00
2023-05-04T04:46:59.421Z,580.00
2023-05-04T04:47:59.340Z,592.00
2023-05-04T04:48:59.300Z,604.00
2023-05-04T04:49:59.293Z,620.00
2023-05-04T04:50:59.289Z,636.00
2023-05-04T04:51:59.292Z,652.00
2023-05-04T04:52:59.260Z,668.00
2023-05-04T04:53:59.422Z,680.00
2023-05-04T04:54:59.265Z,692.00
2023-05-04T04:55:59.260Z,708.00
2023-05-04T04:56:59.250Z,720.00
2023-05-04T04:57:59.374Z,732.00
2023-05-04T04:58:59.245Z,752.00
2023-05-04T04:59:59.258Z,764.00
2023-05-04T05:00:59.298Z,784.00
2023-05-04T05:01:59.240Z,804.00
2023-05-04T05:02:59.295Z,820.00
2023-05-04T05:03:59.228Z,840.00
2023-05-04T05:04:59.291Z,876.00
2023-05-04T05:05:59.222Z,896.00
2023-05-04T05:06:59.224Z,900.00
2023-05-04T05:07:59.240Z,916.00
2023-05-04T05:08:59.207Z,928.00
2023-05-04T05:09:59.232Z,924.00
2023-05-04T05:10:59.204Z,944.00
2023-05-04T05:11:59.217Z,972.00
2023-05-04T05:12:59.230Z,1000.00
2023-05-04T05:13:59.203Z,1032.00
2023-05-04T05:14:59.234Z,1052.00
2023-05-04T05:15:59.209Z,1064.00
2023-05-04T05:16:59.288Z,1048.00
2023-05-04T05:17:59.292Z,1068.00
2023-05-04T05:18:59.198Z,1088.00
2023-05-04T05:19:59.176Z,1108.00
2023-05-04T05:20:59.171Z,1140.00
2023-05-04T05:21:59.182Z,1156.00
2023-05-04T05:22:59.200Z,1156.00
2023-05-04T05:23:59.156Z,1164.00
2023-05-04T05:24:59.183Z,1180.00
2023-05-04T05:26:00.848Z,1192.00
2023-05-04T05:26:59.171Z,1204.00
2023-05-04T05:27:59.153Z,1224.00
2023-05-04T05:28:59.175Z,1240.00
2023-05-04T05:29:59.140Z,1248.00
2023-05-04T05:30:59.255Z,1268.00
2023-05-04T05:31:59.173Z,1280.00
2023-05-04T05:32:59.203Z,1304.00
2023-05-04T05:33:59.154Z,1340.00
2023-05-04T05:34:59.183Z,1388.00
2023-05-04T05:35:59.139Z,1456.00
2023-05-04T05:36:59.174Z,1480.00
2023-05-04T05:37:59.123Z,1508.00
2023-05-04T05:38:59.127Z,1540.00
2023-05-04T05:39:59.141Z,1560.00
2023-05-04T05:40:59.111Z,1544.00
2023-05-04T05:41:59.128Z,1560.00
2023-05-04T05:42:59.120Z,1580.00
2023-05-04T05:43:59.117Z,1576.00
2023-05-04T05:44:59.091Z,1604.00
2023-05-04T05:45:59.191Z,1652.00
2023-05-04T05:46:59.187Z,1700.00
2023-05-04T05:47:59.157Z,1680.00
2023-05-04T05:48:59.156Z,1748.00
2023-05-04T05:49:59.095Z,1808.00
2023-05-04T05:50:59.133Z,1856.00
2023-05-04T05:51:59.170Z,1876.00
2023-05-04T05:52:59.091Z,1840.00
2023-05-04T05:53:59.078Z,1888.00
2023-05-04T05:55:01.663Z,1940.00
2023-05-04T05:55:59.102Z,1996.00
2023-05-04T05:56:59.360Z,1988.00
2023-05-04T05:57:59.221Z,2068.00
2023-05-04T05:58:59.075Z,2068.00
2023-05-04T06:00:00.676Z,2072.00
2023-05-04T06:00:59.057Z,2028.00
2023-05-04T06:01:59.087Z,1992.00
2023-05-04T06:02:59.298Z,1904.00
2023-05-04T06:03:59.337Z,1892.00
2023-05-04T06:04:59.217Z,1936.00
2023-05-04T06:05:59.079Z,1976.00
2023-05-04T06:06:59.055Z,2052.00
2023-05-04T06:07:59.061Z,2132.00
2023-05-04T06:08:59.189Z,2160.00
2023-05-04T06:09:59.054Z,2164.00
2023-05-04T06:10:59.031Z,2228.00
2023-05-04T06:11:59.048Z,2196.00
2023-05-04T06:12:59.125Z,2160.00
2023-05-04T06:13:59.025Z,2264.00
2023-05-04T06:14:59.116Z,2344.00
2023-05-04T06:15:59.056Z,2344.00
2023-05-04T06:16:59.051Z,2384.00
2023-05-04T06:17:59.049Z,2364.00
2023-05-04T06:18:58.987Z,2444.00
2023-05-04T06:19:59.100Z,2544.00
2023-05-04T06:20:59.001Z,2568.00
2023-05-04T06:21:59.018Z,2612.00
2023-05-04T06:22:58.997Z,2600.00
2023-05-04T06:23:59.014Z,2592.00
2023-05-04T06:25:03.686Z,2592.00
2023-05-04T06:25:59.005Z,2548.00
2023-05-04T06:26:59.043Z,2576.00
2023-05-04T06:27:59.025Z,2596.00
2023-05-04T06:28:59.022Z,2580.00
2023-05-04T06:29:58.977Z,2528.00
2023-05-04T06:30:59.016Z,2472.00
2023-05-04T06:31:59.015Z,2500.00
2023-05-04T06:32:59.011Z,2504.00
2023-05-04T06:33:58.980Z,2508.00
2023-05-04T06:34:58.952Z,2484.00
2023-05-04T06:35:59.009Z,2504.00
2023-05-04T06:36:59.000Z,2508.00
2023-05-04T06:37:58.966Z,2528.00
2023-05-04T06:38:58.997Z,2536.00
2023-05-04T06:39:58.958Z,2468.00
2023-05-04T06:40:58.980Z,2400.00
2023-05-04T06:41:58.975Z,2288.00
2023-05-04T06:42:59.045Z,2348.00
2023-05-04T06:43:59.067Z,2300.00
2023-05-04T06:44:59.023Z,2192.00
2023-05-04T06:45:58.964Z,2164.00
2023-05-04T06:46:58.965Z,2136.00
2023-05-04T06:47:58.962Z,2128.00
2023-05-04T06:48:59.020Z,2088.00
2023-05-04T06:49:58.920Z,2084.00
2023-05-04T06:51:00.783Z,2096.00
2023-05-04T06:51:58.951Z,2052.00
2023-05-04T06:52:58.936Z,1976.00
2023-05-04T06:53:58.903Z,1984.00
2023-05-04T06:54:59.134Z,1960.00
2023-05-04T06:55:58.965Z,1952.00
2023-05-04T06:56:58.917Z,1948.00
2023-05-04T06:57:59.024Z,1984.00
2023-05-04T06:58:58.933Z,2072.00
2023-05-04T06:59:58.899Z,2140.00
2023-05-04T07:00:58.943Z,2192.00
2023-05-04T07:01:58.895Z,2256.00
2023-05-04T07:02:58.937Z,2368.00
2023-05-04T07:03:58.934Z,2464.00
2023-05-04T07:04:58.933Z,2536.00
2023-05-04T07:05:58.921Z,2668.00
2023-05-04T07:06:58.938Z,2828.00
2023-05-04T07:07:58.967Z,3004.00
2023-05-04T07:08:58.884Z,3180.00
2023-05-04T07:09:59.023Z,3344.00
2023-05-04T07:12:31.519Z,3732.00
2023-05-04T07:13:31.451Z,3872.00
2023-05-04T07:14:31.460Z,4088.00
2023-05-04T07:15:31.462Z,4320.00
2023-05-04T07:16:31.509Z,4352.00
2023-05-04T07:17:31.525Z,4148.00
2023-05-04T07:18:31.450Z,4400.00
2023-05-04T07:19:31.488Z,4316.00
2023-05-04T07:20:31.476Z,4352.00
2023-05-04T07:21:31.436Z,4440.00
2023-05-04T07:22:31.445Z,4208.00
2023-05-04T07:23:31.473Z,4120.00
2023-05-04T07:24:31.456Z,4252.00
2023-05-04T07:25:31.433Z,4384.00
2023-05-04T07:26:31.467Z,4380.00
2023-05-04T07:27:31.420Z,4360.00
2023-05-04T07:28:31.450Z,4052.00
2023-05-04T07:29:31.428Z,4244.00
2023-05-04T07:30:31.540Z,4324.00
2023-05-04T07:31:31.647Z,4312.00
2023-05-04T07:32:31.453Z,4268.00
2023-05-04T07:33:31.427Z,4204.00
2023-05-04T07:34:44.526Z,4128.00
2023-05-04T07:35:31.823Z,4100.00
2023-05-04T07:36:31.475Z,4024.00
2023-05-04T07:37:31.417Z,3984.00
2023-05-04T07:38:31.418Z,3932.00
2023-05-04T07:39:31.449Z,3828.00
2023-05-04T07:40:31.510Z,3820.00
2023-05-04T07:41:31.492Z,3756.00
2023-05-04T07:42:32.263Z,3636.00
2023-05-04T07:43:31.490Z,3544.00
2023-05-04T07:44:31.450Z,3492.00
2023-05-04T07:45:31.404Z,3412.00
2023-05-04T07:46:32.218Z,3356.00
2023-05-04T07:47:31.448Z,3272.00
2023-05-04T07:48:31.483Z,3248.00
2023-05-04T07:49:31.434Z,3248.00
2023-05-04T07:50:31.629Z,3256.00
2023-05-04T07:51:31.391Z,3256.00
2023-05-04T07:52:31.478Z,3236.00
2023-05-04T07:53:31.477Z,3232.00
2023-05-04T07:54:31.395Z,3252.00
2023-05-04T07:55:31.384Z,3236.00
2023-05-04T07:56:31.703Z,3272.00
2023-05-04T07:57:31.411Z,3300.00
2023-05-04T07:58:31.417Z,3268.00
2023-05-04T07:59:31.398Z,3256.00
2023-05-04T08:00:31.752Z,3268.00
2023-05-04T08:01:31.457Z,3244.00
2023-05-04T08:02:31.500Z,3208.00
2023-05-04T08:03:31.399Z,3148.00
2023-05-04T08:04:31.368Z,3132.00
2023-05-04T08:05:31.370Z,3120.00
2023-05-04T08:06:31.370Z,3168.00
2023-05-04T08:07:31.451Z,3228.00
2023-05-04T08:08:31.398Z,3240.00
2023-05-04T08:09:31.381Z,3288.00
2023-05-04T08:10:31.465Z,3304.00
2023-05-04T08:11:31.427Z,3268.00
2023-05-04T08:12:31.617Z,3296.00
2023-05-04T08:13:31.419Z,3400.00
2023-05-04T08:14:31.547Z,3532.00
2023-05-04T08:15:31.464Z,3448.00
2023-05-04T08:16:31.654Z,3392.00
2023-05-04T08:17:31.413Z,3356.00
2023-05-04T08:18:31.450Z,3336.00
2023-05-04T08:19:31.499Z,3308.00
2023-05-04T08:20:31.455Z,3164.00
2023-05-04T08:21:31.360Z,3212.00
2023-05-04T08:22:31.359Z,3360.00
2023-05-04T08:23:31.383Z,3376.00
2023-05-04T08:24:31.413Z,3404.00
2023-05-04T08:25:31.450Z,3388.00
2023-05-04T08:26:31.397Z,3364.00
2023-05-04T08:27:31.385Z,3384.00
2023-05-04T08:28:31.377Z,3508.00
2023-05-04T08:29:31.392Z,3700.00
2023-05-04T08:30:31.388Z,3796.00
2023-05-04T08:31:31.360Z,3916.00
2023-05-04T08:32:33.253Z,3916.00
2023-05-04T08:33:31.428Z,3896.00
2023-05-04T08:34:31.372Z,3936.00
2023-05-04T08:35:31.563Z,4028.00
2023-05-04T08:36:31.391Z,4108.00
2023-05-04T08:37:31.371Z,4120.00
2023-05-04T08:38:31.444Z,4140.00
2023-05-04T08:39:31.361Z,4252.00
2023-05-04T08:40:32.284Z,4276.00
2023-05-04T08:41:31.509Z,4300.00
2023-05-04T08:42:31.352Z,4344.00
2023-05-04T08:43:31.356Z,4344.00
2023-05-04T08:44:31.450Z,4504.00
2023-05-04T08:45:31.584Z,4688.00
2023-05-04T08:46:32.139Z,4640.00
2023-05-04T08:47:31.384Z,4804.00
2023-05-04T08:48:31.394Z,4756.00
2023-05-04T08:49:31.379Z,4868.00
2023-05-04T08:50:31.350Z,4884.00
2023-05-04T08:51:31.361Z,4980.00
2023-05-04T08:52:31.353Z,5092.00
2023-05-04T08:53:31.378Z,5064.00
2023-05-04T08:54:31.343Z,5000.00
2023-05-04T08:55:31.369Z,4900.00
2023-05-04T08:56:31.358Z,4912.00
2023-05-04T08:57:31.369Z,4808.00
2023-05-04T08:58:31.398Z,4764.00
2023-05-04T08:59:31.359Z,4680.00
2023-05-04T09:00:31.400Z,4632.00
2023-05-04T09:01:31.478Z,4536.00
2023-05-04T09:02:31.410Z,4520.00
2023-05-04T09:03:31.513Z,4500.00
2023-05-04T09:04:31.408Z,4516.00
2023-05-04T09:05:31.336Z,4500.00
2023-05-04T09:06:31.335Z,4452.00
2023-05-04T09:07:31.338Z,4432.00
2023-05-04T09:08:31.361Z,4408.00
2023-05-04T09:09:31.343Z,4440.00
2023-05-04T09:10:31.325Z,4416.00
2023-05-04T09:11:31.363Z,4396.00
2023-05-04T09:12:31.457Z,4392.00
2023-05-04T09:13:31.312Z,4376.00
2023-05-04T09:14:31.312Z,4332.00
2023-05-04T09:15:31.323Z,4360.00
2023-05-04T09:16:31.343Z,4372.00
2023-05-04T09:17:31.474Z,4356.00
2023-05-04T09:18:31.372Z,4328.00
2023-05-04T09:19:31.347Z,4264.00
2023-05-04T09:20:31.380Z,4180.00
2023-05-04T09:21:31.365Z,4168.00
2023-05-04T09:22:31.546Z,4176.00
2023-05-04T09:23:31.386Z,4188.00
2023-05-04T09:24:31.334Z,4236.00
2023-05-04T09:25:31.401Z,4216.00
2023-05-04T09:26:31.417Z,4200.00
2023-05-04T09:27:31.408Z,4100.00
2023-05-04T09:28:33.194Z,4096.00
2023-05-04T09:29:32.214Z,4108.00
2023-05-04T09:30:31.407Z,4076.00
2023-05-04T09:31:31.361Z,3948.00
2023-05-04T09:32:31.461Z,3932.00
2023-05-04T09:33:31.333Z,3908.00
2023-05-04T09:34:31.530Z,3836.00
2023-05-04T09:35:33.838Z,3908.00
2023-05-04T09:36:31.380Z,3888.00
2023-05-04T09:37:31.460Z,3868.00
2023-05-04T09:40:04.018Z,3908.00
2023-05-04T09:41:04.010Z,4052.00
2023-05-04T09:42:32.651Z,4188.00
2023-05-04T09:43:03.878Z,4264.00
2023-05-04T09:44:03.891Z,4204.00
2023-05-04T09:45:05.145Z,4216.00
2023-05-04T09:46:03.992Z,4304.00
2023-05-04T09:47:04.390Z,4404.00
2023-05-04T09:48:04.150Z,4372.00
2023-05-04T09:49:03.935Z,4484.00
2023-05-04T09:50:04.089Z,4432.00
2023-05-04T09:51:03.866Z,4424.00
2023-05-04T09:52:03.886Z,4436.00
2023-05-04T09:53:03.854Z,4404.00
2023-05-04T09:54:03.886Z,4364.00
2023-05-04T09:55:04.046Z,4404.00
2023-05-04T09:56:05.770Z,4396.00
2023-05-04T09:57:03.936Z,4428.00
2023-05-04T09:58:03.902Z,4444.00
2023-05-04T09:59:03.871Z,4480.00
2023-05-04T10:00:03.877Z,4484.00
2023-05-04T10:01:03.958Z,4428.00
2023-05-04T10:02:14.487Z,4508.00
2023-05-04T10:13:26.713Z,4408.00
2023-05-04T10:14:26.553Z,4404.00
2023-05-04T10:15:26.566Z,4564.00
2023-05-04T10:16:26.595Z,4688.00
2023-05-04T10:17:26.616Z,4704.00
2023-05-04T10:18:26.556Z,4724.00
2023-05-04T10:19:26.565Z,4696.00
2023-05-04T10:20:26.585Z,4672.00
2023-05-04T10:21:26.542Z,4560.00
2023-05-04T10:22:26.653Z,4512.00
2023-05-04T10:23:26.571Z,4468.00
2023-05-04T10:24:26.565Z,4432.00
2023-05-04T10:25:26.614Z,4420.00
2023-05-04T10:26:26.569Z,4456.00
2023-05-04T10:27:26.665Z,4460.00
2023-05-04T10:28:26.573Z,4508.00
2023-05-04T10:29:26.567Z,4492.00
2023-05-04T10:30:26.572Z,4480.00
2023-05-04T10:31:26.608Z,4536.00
2023-05-04T10:32:26.711Z,4548.00
2023-05-04T10:33:26.560Z,4628.00
2023-05-04T10:34:26.611Z,4700.00
2023-05-04T10:35:26.605Z,4640.00
2023-05-04T10:36:26.618Z,4668.00
2023-05-04T10:37:26.753Z,4840.00
2023-05-04T10:38:26.550Z,4884.00
2023-05-04T10:39:26.572Z,5000.00
2023-05-04T10:40:26.593Z,5104.00
2023-05-04T10:41:26.609Z,5180.00
2023-05-04T10:42:26.657Z,5168.00
2023-05-04T10:43:26.834Z,5140.00
2023-05-04T10:44:26.582Z,5104.00
2023-05-04T10:45:26.654Z,5056.00
2023-05-04T10:46:26.662Z,5012.00
2023-05-04T10:47:26.623Z,5008.00
2023-05-04T10:48:26.547Z,5016.00
2023-05-04T10:49:26.630Z,5016.00
2023-05-04T10:50:26.568Z,5096.00
2023-05-04T10:51:35.565Z,5044.00
2023-05-04T10:52:26.649Z,5076.00
2023-05-04T10:53:26.643Z,5104.00
2023-05-04T10:54:26.560Z,4640.00
2023-05-04T10:55:26.558Z,4868.00
2023-05-04T10:56:26.574Z,5052.00
2023-05-04T10:57:26.658Z,5076.00
2023-05-04T10:58:26.558Z,5192.00
2023-05-04T10:59:26.564Z,5220.00
2023-05-04T11:00:26.658Z,5384.00
2023-05-04T11:01:26.828Z,5432.00
2023-05-04T11:02:26.672Z,5508.00
2023-05-04T11:03:26.675Z,5540.00
2023-05-04T11:04:26.621Z,5660.00
2023-05-04T11:05:26.704Z,5820.00
2023-05-04T11:06:26.599Z,5920.00
2023-05-04T11:07:26.637Z,5936.00
2023-05-04T11:08:26.637Z,5952.00
2023-05-04T11:09:26.643Z,6172.00
2023-05-04T11:10:26.644Z,6100.00
2023-05-04T11:11:26.606Z,6228.00
2023-05-04T11:12:26.609Z,6348.00
2023-05-04T11:13:26.822Z,6344.00
2023-05-04T11:14:27.177Z,6224.00
2023-05-04T11:15:26.601Z,5944.00
2023-05-04T11:16:27.675Z,5604.00
2023-05-04T11:17:28.462Z,5640.00
2023-05-04T11:18:26.867Z,5596.00
2023-05-04T11:19:26.753Z,5548.00
2023-05-04T11:20:26.671Z,5600.00
2023-05-04T11:21:26.609Z,5740.00
2023-05-04T11:22:26.624Z,5776.00
2023-05-04T11:23:26.729Z,5736.00
2023-05-04T11:24:27.351Z,5828.00
2023-05-04T11:25:26.662Z,5980.00
2023-05-04T11:26:26.684Z,6020.00
2023-05-04T11:27:26.652Z,5980.00
2023-05-04T11:28:26.721Z,6012.00
2023-05-04T11:29:26.677Z,6176.00
2023-05-04T11:30:26.667Z,6280.00
2023-05-04T11:31:26.739Z,6232.00
2023-05-04T11:32:26.756Z,6300.00
2023-05-04T11:33:27.155Z,6372.00
2023-05-04T11:34:26.766Z,6540.00
2023-05-04T11:35:26.704Z,6264.00
2023-05-04T11:36:26.680Z,6348.00
2023-05-04T11:37:26.815Z,6744.00
2023-05-04T11:38:26.732Z,6712.00
2023-05-04T11:39:26.743Z,6688.00
2023-05-04T11:40:26.870Z,6660.00
2023-05-04T11:41:26.744Z,6664.00
2023-05-04T11:42:26.694Z,6636.00
2023-05-04T11:43:26.684Z,6780.00
2023-05-04T11:44:26.730Z,6920.00
2023-05-04T11:45:26.691Z,6776.00
2023-05-04T11:46:26.736Z,6720.00
2023-05-04T11:47:26.733Z,6648.00
2023-05-04T11:48:26.713Z,6704.00
2023-05-04T11:49:26.695Z,6840.00
2023-05-04T11:50:26.772Z,6808.00
2023-05-04T11:51:27.015Z,6656.00
2023-05-04T11:52:26.732Z,6968.00
2023-05-04T11:53:27.659Z,6744.00
2023-05-04T11:54:26.715Z,6824.00
2023-05-04T11:55:26.720Z,6572.00
2023-05-04T11:56:26.714Z,6804.00
2023-05-04T11:57:26.704Z,7108.00
2023-05-04T11:58:26.885Z,7244.00
2023-05-04T11:59:26.760Z,7500.00
2023-05-04T12:00:26.727Z,7692.00
2023-05-04T12:01:26.855Z,7568.00
2023-05-04T12:02:26.752Z,7744.00
2023-05-04T12:03:35.440Z,7692.00
2023-05-04T12:04:27.064Z,7476.00
2023-05-04T12:05:26.881Z,7796.00
2023-05-04T12:06:26.835Z,7996.00
2023-05-04T12:07:26.778Z,7920.00
2023-05-04T12:08:26.926Z,7968.00
2023-05-04T12:09:26.766Z,8108.00
2023-05-04T12:10:29.857Z,8116.00
2023-05-04T12:11:27.913Z,8200.00
2023-05-04T12:12:26.787Z,8000.00
2023-05-04T12:13:26.838Z,8148.00
2023-05-04T12:14:26.769Z,7636.00
2023-05-04T12:15:26.977Z,7728.00
2023-05-04T12:16:27.018Z,7784.00
2023-05-04T12:17:27.869Z,7676.00
2023-05-04T12:18:27.847Z,7740.00
2023-05-04T12:19:26.788Z,7940.00
2023-05-04T12:20:26.801Z,7944.00
2023-05-04T12:21:26.887Z,7512.00
2023-05-04T12:22:26.781Z,7944.00
2023-05-04T12:23:27.114Z,7980.00
2023-05-04T12:24:27.070Z,7836.00
2023-05-04T12:25:26.823Z,8080.00
2023-05-04T12:26:26.826Z,7848.00
2023-05-04T12:27:26.832Z,7764.00
2023-05-04T12:28:26.833Z,7680.00
2023-05-04T12:29:26.807Z,7260.00
2023-05-04T12:30:26.943Z,7284.00
2023-05-04T12:31:26.844Z,7128.00
2023-05-04T12:32:26.845Z,7224.00
2023-05-04T12:33:26.797Z,7680.00
2023-05-04T12:34:26.821Z,8000.00
2023-05-04T12:35:27.084Z,8052.00
2023-05-04T12:36:26.840Z,8144.00
2023-05-04T12:37:26.854Z,7840.00
2023-05-04T12:38:26.817Z,7772.00
2023-05-04T12:39:26.881Z,8140.00
2023-05-04T12:40:28.581Z,8168.00
2023-05-04T12:41:26.883Z,8424.00
2023-05-04T12:42:26.855Z,7992.00
2023-05-04T12:43:26.834Z,8344.00
2023-05-04T12:44:26.860Z,8268.00
2023-05-04T12:45:26.849Z,8548.00
2023-05-04T12:46:26.931Z,9056.00
2023-05-04T12:47:26.920Z,9344.00
2023-05-04T12:48:26.890Z,9764.00
2023-05-04T12:49:26.901Z,10148.00
2023-05-04T12:52:59.592Z,9580.00
2023-05-04T12:53:59.426Z,8788.00
2023-05-04T12:54:59.426Z,9072.00
2023-05-04T12:55:59.508Z,9916.00
2023-05-04T12:56:59.487Z,11128.00
2023-05-04T12:57:59.428Z,11520.00
2023-05-04T12:58:59.461Z,12488.00
2023-05-04T12:59:59.431Z,12464.00
2023-05-04T13:00:59.548Z,12440.00
2023-05-04T13:01:59.473Z,13268.00
2023-05-04T13:02:59.595Z,12588.00
2023-05-04T13:03:59.458Z,12268.00
2023-05-04T13:04:59.443Z,13072.00
2023-05-04T13:05:59.462Z,13888.00
2023-05-04T13:06:59.497Z,14436.00
2023-05-04T13:07:59.471Z,13152.00
2023-05-04T13:08:59.545Z,16700.00
2023-05-04T13:09:59.495Z,17980.00
2023-05-04T13:10:59.544Z,18112.00
2023-05-04T13:11:59.503Z,19776.00
2023-05-04T13:12:59.528Z,20352.00
2023-05-04T13:13:59.498Z,20256.00
2023-05-04T13:14:59.535Z,19744.00
2023-05-04T13:15:59.590Z,17700.00
2023-05-04T13:16:59.611Z,20608.00
2023-05-04T13:17:59.550Z,22208.00
2023-05-04T13:18:59.642Z,23296.00
2023-05-04T13:19:59.631Z,24352.00
2023-05-04T13:20:59.587Z,24512.00
2023-05-04T13:21:59.515Z,24896.00
2023-05-04T13:22:59.529Z,25280.00
2023-05-04T13:23:59.591Z,25728.00
2023-05-04T13:24:59.769Z,25952.00
2023-05-04T13:25:59.608Z,25408.00
2023-05-04T13:27:59.610Z,26144.00
2023-05-04T13:28:59.707Z,26528.00
2023-05-04T13:29:59.594Z,26752.00
2023-05-04T13:30:59.618Z,26304.00
2023-05-04T13:31:59.810Z,27008.00
2023-05-04T13:32:59.659Z,27072.00
2023-05-04T13:33:59.668Z,26656.00
2023-05-04T13:34:59.597Z,26816.00
2023-05-04T13:35:59.611Z,25632.00
2023-05-04T13:36:59.638Z,24480.00
2023-05-04T13:37:59.680Z,22304.00
2023-05-04T13:38:59.660Z,25344.00
2023-05-04T13:39:59.704Z,24384.00
2023-05-04T13:40:59.659Z,24064.00
2023-05-04T13:41:59.865Z,23200.00
2023-05-04T13:42:59.686Z,23616.00
2023-05-04T13:43:59.654Z,23936.00
2023-05-04T13:44:59.683Z,24416.00
2023-05-04T13:45:59.719Z,24224.00
2023-05-04T13:47:00.009Z,23424.00
2023-05-04T13:47:59.937Z,22944.00
2023-05-04T13:48:59.725Z,23424.00
2023-05-04T13:49:59.779Z,22880.00
2023-05-04T13:50:59.739Z,23168.00
2023-05-04T13:51:59.702Z,23808.00
2023-05-04T13:52:59.732Z,23520.00
2023-05-04T13:54:01.821Z,23424.00
2023-05-04T13:54:59.724Z,21344.00
2023-05-04T13:55:59.731Z,23040.00
2023-05-04T13:56:59.817Z,22752.00
2023-05-04T13:57:59.738Z,22880.00
2023-05-04T13:58:59.767Z,22784.00
2023-05-04T14:00:06.617Z,21600.00
2023-05-04T14:00:59.837Z,22624.00
2023-05-04T14:01:59.822Z,23296.00
2023-05-04T14:03:00.014Z,22752.00
2023-05-04T14:03:59.783Z,22912.00
2023-05-04T14:04:59.799Z,22784.00
2023-05-04T14:05:59.853Z,22624.00
2023-05-04T14:06:59.814Z,23648.00
2023-05-04T14:07:59.819Z,23136.00
2023-05-04T14:08:59.818Z,22592.00
2023-05-04T14:09:59.843Z,21664.00
2023-05-04T14:10:59.837Z,19936.00
2023-05-04T14:11:59.857Z,22048.00
2023-05-04T14:12:59.866Z,27136.00
2023-05-04T14:13:59.880Z,29792.00
2023-05-04T14:14:59.864Z,27328.00
2023-05-04T14:15:59.886Z,23200.00
2023-05-04T14:16:59.946Z,24864.00
2023-05-04T14:17:59.938Z,39552.00
2023-05-04T14:18:59.909Z,58624.00
2023-05-04T14:19:59.906Z,68704.00
2023-05-04T14:20:59.926Z,68224.00
2023-05-04T14:21:59.917Z,63808.00
2023-05-04T14:22:59.920Z,63712.00
2023-05-04T14:23:59.945Z,67488.00
2023-05-04T14:24:59.941Z,60992.00
2023-05-04T14:25:59.966Z,42336.00
2023-05-04T14:26:59.945Z,25568.00
2023-05-04T14:27:59.978Z,21664.00
2023-05-04T14:28:59.992Z,20704.00
2023-05-04T14:30:00.051Z,21184.00
2023-05-04T14:31:00.002Z,25760.00
2023-05-04T14:32:00.054Z,44256.00
2023-05-04T14:33:00.093Z,58176.00
2023-05-04T14:34:00.013Z,62880.00
2023-05-04T14:35:00.031Z,64640.00
2023-05-04T14:36:00.048Z,62752.00
2023-05-04T14:37:00.069Z,58688.00
2023-05-04T14:38:00.046Z,58976.00
2023-05-04T14:39:00.065Z,51648.00
2023-05-04T14:40:00.100Z,48288.00
2023-05-04T14:41:00.065Z,41760.00
2023-05-04T14:42:00.073Z,48544.00
2023-05-04T14:43:00.117Z,48320.00
2023-05-04T14:44:00.107Z,46208.00
2023-05-04T14:45:00.127Z,49632.00
2023-05-04T14:46:00.210Z,43200.00
2023-05-04T14:47:00.132Z,37824.00
2023-05-04T14:48:00.139Z,40672.00
2023-05-04T14:49:00.152Z,44512.00
2023-05-04T14:50:00.176Z,44096.00
2023-05-04T14:51:00.146Z,45248.00
2023-05-04T14:52:00.159Z,46144.00
2023-05-04T14:53:00.148Z,45440.00
2023-05-04T14:54:00.164Z,46976.00
2023-05-04T14:55:00.198Z,48448.00
2023-05-04T14:56:00.181Z,42880.00
2023-05-04T14:57:00.321Z,39840.00
2023-05-04T14:58:00.192Z,40192.00
2023-05-04T14:59:00.202Z,39136.00
2023-05-04T15:00:00.221Z,36512.00
2023-05-04T15:01:00.293Z,36736.00
2023-05-04T15:02:00.234Z,36928.00
2023-05-04T15:03:00.329Z,36672.00
2023-05-04T15:04:00.345Z,36640.00
2023-05-04T15:05:00.244Z,35744.00
2023-05-04T15:06:00.246Z,36512.00
2023-05-04T15:07:00.266Z,37600.00
2023-05-04T15:08:00.266Z,33568.00
2023-05-04T15:09:00.266Z,33888.00
2023-05-04T15:10:00.269Z,32224.00
2023-05-04T15:11:00.311Z,31136.00
2023-05-04T15:12:00.309Z,31040.00
2023-05-04T15:13:00.349Z,32064.00
2023-05-04T15:14:00.341Z,30368.00
2023-05-04T15:15:00.319Z,27040.00
2023-05-04T15:16:00.365Z,24192.00
2023-05-04T15:17:00.325Z,23584.00
2023-05-04T15:18:00.354Z,24352.00
2023-05-04T15:19:00.337Z,21696.00
2023-05-04T15:20:00.333Z,21536.00
2023-05-04T15:21:00.346Z,20800.00
2023-05-04T15:22:00.337Z,22208.00
2023-05-04T15:23:00.373Z,24672.00
2023-05-04T15:24:00.376Z,26208.00
2023-05-04T15:25:00.358Z,24352.00
2023-05-04T15:26:00.384Z,23904.00
2023-05-04T15:27:00.371Z,22784.00
2023-05-04T15:28:00.388Z,23808.00
2023-05-04T15:29:00.383Z,26208.00
2023-05-04T15:30:00.409Z,24896.00
2023-05-04T15:31:00.416Z,25920.00
2023-05-04T15:32:00.459Z,24864.00
2023-05-04T15:33:00.489Z,23872.00
2023-05-04T15:34:00.401Z,23616.00
2023-05-04T15:35:05.457Z,23328.00
2023-05-04T15:36:00.446Z,19552.00
2023-05-04T15:37:00.418Z,11368.00
2023-05-04T15:38:00.445Z,7096.00
2023-05-04T15:39:00.411Z,6536.00
2023-05-04T15:40:02.484Z,6180.00
2023-05-04T15:41:00.476Z,5984.00
2023-05-04T15:42:00.483Z,5784.00
2023-05-04T15:43:00.439Z,5608.00
2023-05-04T15:44:00.426Z,5468.00
2023-05-04T15:45:00.451Z,5276.00
2023-05-04T15:46:00.470Z,5232.00
2023-05-04T15:47:00.456Z,5136.00
2023-05-04T15:48:00.519Z,5096.00
2023-05-04T15:49:00.506Z,4944.00
2023-05-04T15:50:00.482Z,4876.00
2023-05-04T15:51:00.469Z,4776.00
2023-05-04T15:52:00.480Z,4560.00
2023-05-04T15:53:00.474Z,4340.00
2023-05-04T15:54:00.466Z,4184.00
2023-05-04T15:55:06.513Z,4124.00
2023-05-04T15:56:00.480Z,4096.00
2023-05-04T15:57:00.483Z,4132.00
2023-05-04T15:58:00.477Z,4072.00
2023-05-04T15:59:00.478Z,4012.00
2023-05-04T16:00:00.514Z,3884.00
2023-05-04T16:01:00.518Z,3804.00
2023-05-04T16:12:43.135Z,3332.00
2023-05-04T16:13:43.059Z,3284.00
2023-05-04T16:14:43.088Z,3208.00
2023-05-04T16:15:43.062Z,3100.00
2023-05-04T16:16:43.148Z,3104.00
2023-05-04T16:17:43.064Z,3052.00
2023-05-04T16:18:43.070Z,3036.00
2023-05-04T16:19:43.088Z,3016.00
2023-05-04T16:20:43.061Z,2980.00
2023-05-04T16:21:43.070Z,2912.00
2023-05-04T16:22:43.064Z,2880.00
2023-05-04T16:23:43.212Z,2836.00
2023-05-04T16:24:43.057Z,2792.00
2023-05-04T16:25:43.063Z,2752.00
2023-05-04T16:26:43.066Z,2720.00
2023-05-04T16:27:43.366Z,2712.00
2023-05-04T16:28:43.093Z,2704.00
2023-05-04T16:29:43.076Z,2712.00